Time;durP1;ratioP1;P1;durP2;ratioP2;P2;SDS_P1;SDS_P2;PMS_P1;PMS_P2;Temp;Humidity;BMP_temperature;BMP_pressure;BME280_temperature;BME280_humidity;BME280_pressure;Samples;Min_cycle;Max_cycle;Signal;HPM_P1;HPM_P2
2022/01/10 00:00:45;;;;;;;6.18;1.98;;;;;;;-0.29;100.00;95898.69;2081247;28;20201;-57
2022/01/10 00:01:47;;;;;;;5.07;2.22;;;;;;;-0.25;100.00;95902.81;2081461;28;20247;-57
2022/01/10 00:02:54;;;;;;;8.40;2.45;;;;;;;-0.26;100.00;95901.13;2080604;28;20190;-56
2022/01/10 00:03:55;;;;;;;7.03;2.45;;;;;;;-0.26;100.00;95903.72;2080108;28;20279;-56
2022/01/10 00:04:57;;;;;;;5.85;2.08;;;;;;;-0.23;100.00;95901.03;2081280;28;20193;-57
2022/01/10 00:05:58;;;;;;;6.50;2.20;;;;;;;-0.47;100.00;95863.31;2081272;28;20236;-57
2022/01/10 00:07:00;;;;;;;7.60;2.13;;;;;;;-0.24;100.00;95911.38;2081196;28;20197;-57
2022/01/10 00:08:04;;;;;;;7.53;2.00;;;;;;;-0.38;100.00;95869.88;2081246;28;20197;-57
2022/01/10 00:09:06;;;;;;;7.45;2.30;;;;;;;-0.32;100.00;95879.94;2080705;28;20304;-57
2022/01/10 00:10:09;;;;;;;4.55;1.80;;;;;;;-0.27;100.00;95896.91;2081662;28;20193;-56
2022/01/10 00:11:10;;;;;;;5.30;1.70;;;;;;;-0.14;100.00;95911.88;2081396;28;20196;-57
2022/01/10 00:12:11;;;;;;;6.72;2.20;;;;;;;-0.17;100.00;95906.88;2081251;28;20250;-56
2022/01/10 00:13:13;;;;;;;5.50;2.03;;;;;;;-0.33;100.00;95875.69;2081148;28;20205;-57
2022/01/10 00:14:15;;;;;;;7.88;2.00;;;;;;;-0.15;100.00;95915.38;2080875;28;20579;-57
2022/01/10 00:15:16;;;;;;;6.47;2.15;;;;;;;-0.10;100.00;95913.44;2081239;28;20479;-56
2022/01/10 00:16:18;;;;;;;4.60;2.08;;;;;;;-0.21;100.00;95906.97;2081267;28;20193;-57
2022/01/10 00:17:19;;;;;;;11.70;1.67;;;;;;;-0.21;100.00;95914.69;2081011;28;20667;-57
2022/01/10 00:18:21;;;;;;;10.82;2.30;;;;;;;-0.23;100.00;95916.47;2081373;28;20202;-56
2022/01/10 00:19:22;;;;;;;7.75;2.30;;;;;;;-0.04;100.00;95918.34;2080764;28;20248;-57
2022/01/10 00:20:24;;;;;;;8.07;2.30;;;;;;;-0.18;100.00;95915.47;2081399;28;20198;-57
2022/01/10 00:21:26;;;;;;;7.60;2.42;;;;;;;-0.42;100.00;95887.16;2081236;28;20517;-56
2022/01/10 00:22:27;;;;;;;5.70;3.30;;;;;;;-0.28;100.00;95913.22;2081018;28;20216;-57
2022/01/10 00:23:29;;;;;;;4.40;2.67;;;;;;;-0.52;100.00;95872.97;2080609;28;20202;-56
2022/01/10 00:24:30;;;;;;;13.60;3.35;;;;;;;-0.29;100.00;95919.28;2081157;28;20197;-56
2022/01/10 00:25:32;;;;;;;6.72;2.70;;;;;;;-0.29;100.00;95916.72;2081199;28;20847;-56
2022/01/10 00:26:33;;;;;;;10.77;3.10;;;;;;;-0.28;100.00;95920.94;2081471;28;20209;-56
2022/01/10 00:27:35;;;;;;;7.90;2.40;;;;;;;-0.18;100.00;95923.19;2081358;28;20201;-57
2022/01/10 00:28:36;;;;;;;10.38;2.30;;;;;;;-0.24;100.00;95919.94;2080560;28;20201;-56
2022/01/10 00:29:38;;;;;;;3.78;2.03;;;;;;;-0.13;100.00;95926.44;2081191;28;20205;-56
2022/01/10 00:30:39;;;;;;;8.73;2.65;;;;;;;-0.24;100.00;95922.50;2081164;28;20556;-57
2022/01/10 00:31:41;;;;;;;4.07;2.40;;;;;;;-0.19;100.00;95934.41;2081222;28;20208;-57
2022/01/10 00:32:44;;;;;;;5.65;2.30;;;;;;;-0.23;100.00;95921.63;2081253;28;20233;-56
2022/01/10 00:33:45;;;;;;;5.93;2.00;;;;;;;-0.16;100.00;95931.69;2080896;28;20224;-56
2022/01/10 00:34:47;;;;;;;9.52;2.53;;;;;;;-0.23;100.00;95937.06;2081531;28;20198;-57
2022/01/10 00:35:48;;;;;;;3.40;2.05;;;;;;;-0.16;100.00;95932.53;2081397;28;20212;-56
2022/01/10 00:36:49;;;;;;;5.70;2.30;;;;;;;-0.24;100.00;95934.53;2081253;28;20196;-56
2022/01/10 00:37:51;;;;;;;7.72;2.17;;;;;;;-0.28;100.00;95927.84;2081195;28;20203;-56
2022/01/10 00:38:53;;;;;;;7.65;2.25;;;;;;;-0.46;100.00;95907.00;2080782;28;20669;-56
2022/01/10 00:39:54;;;;;;;5.30;2.70;;;;;;;-0.34;100.00;95928.88;2071923;28;20201;-56
2022/01/10 00:40:56;;;;;;;7.68;3.15;;;;;;;-0.28;100.00;95931.22;2072495;28;20197;-57
2022/01/10 00:41:57;;;;;;;11.27;3.47;;;;;;;-0.31;100.00;95931.38;2081185;28;20193;-57
2022/01/10 00:42:59;;;;;;;10.48;3.50;;;;;;;-0.30;100.00;95930.44;2081248;28;20636;-57
2022/01/10 00:44:01;;;;;;;7.80;4.75;;;;;;;-0.61;100.00;95893.00;2080548;28;20636;-57
2022/01/10 00:45:13;;;;;;;12.15;6.05;;;;;;;-0.32;100.00;95934.00;2081063;28;20208;-56
2022/01/10 00:46:14;;;;;;;16.30;6.72;;;;;;;-0.21;100.00;95924.97;2081358;28;20675;-56
2022/01/10 00:47:17;;;;;;;18.15;7.80;;;;;;;-0.36;100.00;95935.00;2080539;28;20197;-56
2022/01/10 00:48:18;;;;;;;17.00;8.82;;;;;;;-0.37;100.00;95923.00;2079454;28;20803;-56
2022/01/10 00:49:20;;;;;;;23.98;11.00;;;;;;;-0.39;100.00;95938.53;2080829;28;20237;-56
2022/01/10 00:50:24;;;;;;;19.08;9.57;;;;;;;-0.36;100.00;95943.53;2081151;28;20205;-57
2022/01/10 00:51:26;;;;;;;22.20;8.43;;;;;;;-0.53;100.00;95922.72;2080979;28;20212;-56
2022/01/10 00:52:27;;;;;;;9.27;4.93;;;;;;;-0.46;100.00;95944.78;2081313;28;20197;-56
2022/01/10 00:53:30;;;;;;;12.23;5.35;;;;;;;-0.68;100.00;95908.69;2080556;28;20217;-57
2022/01/10 00:54:31;;;;;;;10.10;4.32;;;;;;;-0.44;100.00;95943.00;2079760;28;20198;-57
2022/01/10 00:55:33;;;;;;;8.65;4.30;;;;;;;-0.48;100.00;95936.28;2080793;28;20204;-57
2022/01/10 00:56:34;;;;;;;12.70;5.03;;;;;;;-0.68;100.00;95930.09;2080239;28;20204;-57
2022/01/10 00:57:36;;;;;;;11.18;4.47;;;;;;;-0.51;100.00;95946.66;2079827;28;20235;-57
2022/01/10 00:58:37;;;;;;;13.52;5.43;;;;;;;-0.40;100.00;95952.28;2080456;28;20197;-57
2022/01/10 00:59:39;;;;;;;10.75;4.40;;;;;;;-0.48;100.00;95941.41;2081182;28;20848;-56
2022/01/10 01:00:40;;;;;;;12.07;4.35;;;;;;;-0.40;100.00;95954.84;2081355;28;20204;-58
2022/01/10 01:01:42;;;;;;;14.73;5.97;;;;;;;-0.44;100.00;95946.38;2080900;28;20284;-59
2022/01/10 01:02:44;;;;;;;17.00;5.75;;;;;;;-0.44;100.00;95953.28;2080317;28;20861;-56
2022/01/10 01:03:47;;;;;;;16.35;5.72;;;;;;;-0.41;100.00;95954.00;2080294;28;20224;-57
2022/01/10 01:04:51;;;;;;;13.57;6.07;;;;;;;-0.37;100.00;95953.88;2080588;28;20920;-56
2022/01/10 01:05:53;;;;;;;9.52;5.68;;;;;;;-0.38;100.00;95958.19;2080832;28;20220;-56
2022/01/10 01:06:54;;;;;;;11.68;5.95;;;;;;;-0.45;100.00;95960.16;2080598;28;20640;-57
2022/01/10 01:08:00;;;;;;;12.50;6.88;;;;;;;-0.48;100.00;95962.84;2081198;28;20206;-57
2022/01/10 01:09:07;;;;;;;16.10;6.32;;;;;;;-0.46;100.00;95962.78;2080423;28;20229;-56
2022/01/10 01:12:46;;;;;;;15.98;5.22;;;;;;;-0.46;100.00;95966.19;2080872;28;20208;-57
2022/01/10 01:13:57;;;;;;;15.77;5.82;;;;;;;-0.49;100.00;95962.88;2080138;28;20224;-57
2022/01/10 01:15:17;;;;;;;15.10;6.47;;;;;;;-1.16;100.00;95858.06;2079816;28;20844;-57
2022/01/10 01:16:31;;;;;;;9.20;5.40;;;;;;;-0.43;100.00;95967.84;2079133;28;20196;-57
2022/01/10 01:17:36;;;;;;;12.35;5.15;;;;;;;-0.26;100.00;95968.03;2080231;28;20196;-57
2022/01/10 01:24:01;;;;;;;12.02;5.65;;;;;;;-0.34;100.00;95989.81;2080212;28;20224;-56
2022/01/10 01:25:04;;;;;;;12.80;6.05;;;;;;;-0.36;100.00;95987.28;2080824;28;20246;-57
2022/01/10 01:26:05;;;;;;;11.55;5.47;;;;;;;-0.50;100.00;95953.50;2080899;28;20197;-56
2022/01/10 01:27:07;;;;;;;15.00;7.25;;;;;;;-0.27;100.00;95992.13;2080820;28;20192;-56
2022/01/10 01:28:08;;;;;;;16.00;7.90;;;;;;;-0.37;100.00;95979.63;2080771;28;20205;-57
2022/01/10 01:29:13;;;;;;;16.23;7.53;;;;;;;-0.36;100.00;95974.44;2080246;28;20236;-57
2022/01/10 01:30:14;;;;;;;15.15;8.00;;;;;;;-0.22;100.00;96005.69;2080666;28;20209;-57
2022/01/10 01:31:15;;;;;;;19.08;9.02;;;;;;;-0.26;100.00;96001.50;2080893;28;20197;-57
2022/01/10 01:32:17;;;;;;;16.40;8.07;;;;;;;-0.27;100.00;96002.41;2080522;28;20207;-57
2022/01/10 01:33:19;;;;;;;20.15;9.50;;;;;;;-0.37;100.00;95974.47;2080625;28;20312;-57
2022/01/10 01:34:23;;;;;;;14.50;7.45;;;;;;;-0.20;100.00;96008.16;2080265;28;20256;-57
2022/01/10 01:35:25;;;;;;;18.63;9.00;;;;;;;-0.21;100.00;96009.91;2080607;28;20193;-57
2022/01/10 01:36:29;;;;;;;12.48;7.05;;;;;;;-0.41;100.00;95974.59;2080710;28;20224;-57
2022/01/10 01:37:31;;;;;;;13.23;7.57;;;;;;;-0.24;100.00;96010.00;2080737;28;20223;-57
2022/01/10 01:38:33;;;;;;;16.55;5.97;;;;;;;-0.42;100.00;95979.78;2080440;28;20204;-57
2022/01/10 01:39:35;;;;;;;14.30;6.20;;;;;;;-0.24;100.00;96015.16;2079665;28;20578;-57
2022/01/10 01:40:44;;;;;;;14.20;5.47;;;;;;;-0.54;100.00;96009.34;2080774;28;20201;-57
2022/01/10 01:41:46;;;;;;;9.90;6.00;;;;;;;-0.47;100.00;96002.25;2080400;28;20714;-57
2022/01/10 01:42:48;;;;;;;11.27;5.63;;;;;;;-0.40;100.00;96011.44;2080980;28;20309;-57
2022/01/10 01:43:50;;;;;;;13.02;5.95;;;;;;;-0.40;100.00;96009.72;2080458;28;20221;-57
2022/01/10 01:44:52;;;;;;;11.88;5.15;;;;;;;-0.39;100.00;96002.84;2080048;28;20201;-57
2022/01/10 01:45:53;;;;;;;10.85;5.22;;;;;;;-0.52;100.00;95979.28;2079100;28;20197;-57
2022/01/10 01:46:55;;;;;;;13.60;5.97;;;;;;;-0.31;100.00;96020.59;2080474;28;20197;-57
2022/01/10 01:47:57;;;;;;;7.75;5.07;;;;;;;-0.34;100.00;96010.41;2080659;28;20667;-57
2022/01/10 01:48:58;;;;;;;11.75;5.63;;;;;;;-0.31;100.00;96020.59;2079664;28;20527;-56
2022/01/10 01:50:00;;;;;;;10.40;5.80;;;;;;;-0.47;100.00;95989.38;2081087;28;20197;-57
2022/01/10 01:51:03;;;;;;;12.05;6.20;;;;;;;-0.33;100.00;96023.22;2079238;28;20224;-57
2022/01/10 01:52:04;;;;;;;18.05;7.18;;;;;;;-0.61;100.00;95988.16;2081083;28;20200;-57
2022/01/10 01:53:07;;;;;;;12.10;6.18;;;;;;;-0.42;100.00;96018.38;2080624;28;20193;-57
2022/01/10 01:54:09;;;;;;;10.88;5.85;;;;;;;-0.37;100.00;96023.38;2079784;28;20916;-57
2022/01/10 01:55:11;;;;;;;15.50;6.35;;;;;;;-0.36;100.00;96032.78;2080697;28;20628;-57
2022/01/10 01:56:14;;;;;;;10.88;5.38;;;;;;;-0.29;100.00;96029.09;2080424;28;20197;-57
2022/01/10 01:57:17;;;;;;;19.90;6.15;;;;;;;-0.26;100.00;96023.84;2080727;28;20201;-57
2022/01/10 01:58:18;;;;;;;10.48;5.88;;;;;;;-0.30;100.00;96019.69;2080525;28;20208;-56
2022/01/10 01:59:20;;;;;;;17.58;7.88;;;;;;;-0.54;100.00;95985.38;2080000;28;20591;-57
2022/01/10 02:00:23;;;;;;;13.40;6.22;;;;;;;-0.50;100.00;96000.63;2079530;28;20197;-57
2022/01/10 02:01:25;;;;;;;11.55;6.13;;;;;;;-0.39;100.00;96031.16;2080685;28;20197;-57
2022/01/10 02:02:27;;;;;;;10.95;5.68;;;;;;;-0.35;100.00;96026.72;2080644;28;20224;-57
2022/01/10 02:03:29;;;;;;;14.27;6.32;;;;;;;-0.35;100.00;96022.44;2080016;28;20465;-57
2022/01/10 02:04:31;;;;;;;14.00;6.60;;;;;;;-0.29;100.00;96032.50;2080968;28;20201;-58
2022/01/10 02:05:34;;;;;;;16.40;6.78;;;;;;;-0.27;100.00;96033.28;2080098;28;20212;-57
2022/01/10 02:06:35;;;;;;;14.65;5.85;;;;;;;-0.19;100.00;96034.78;2081140;28;20197;-57
2022/01/10 02:07:37;;;;;;;17.45;5.55;;;;;;;-0.24;100.00;96040.88;2080535;28;20205;-57
2022/01/10 02:08:40;;;;;;;13.65;5.70;;;;;;;-0.26;100.00;96039.28;2080458;28;20204;-57
2022/01/10 02:09:41;;;;;;;12.50;5.80;;;;;;;-0.24;100.00;96045.22;2080445;28;20197;-57
2022/01/10 02:10:43;;;;;;;16.17;5.75;;;;;;;-0.26;100.00;96034.97;2080984;28;20680;-56
2022/01/10 02:11:44;;;;;;;10.40;5.55;;;;;;;-0.21;100.00;96045.94;2080742;28;20210;-57
2022/01/10 02:12:46;;;;;;;13.40;5.63;;;;;;;-0.20;100.00;96044.22;2071851;28;20201;-57
2022/01/10 02:13:48;;;;;;;16.08;6.00;;;;;;;-0.33;100.00;96012.06;2071385;28;20334;-57
2022/01/10 02:14:49;;;;;;;15.45;5.60;;;;;;;-0.18;100.00;96044.16;2080548;28;20201;-57
2022/01/10 02:15:59;;;;;;;11.43;5.07;;;;;;;-0.12;100.00;96044.78;2080568;28;20197;-57
2022/01/10 02:17:04;;;;;;;10.68;5.32;;;;;;;-0.15;100.00;96047.47;2080414;28;20197;-57
2022/01/10 02:18:05;;;;;;;11.70;5.82;;;;;;;-0.13;100.00;96044.84;2071687;28;20680;-56
2022/01/10 02:19:07;;;;;;;10.50;4.40;;;;;;;-0.24;100.00;96030.59;2071224;28;20230;-57
2022/01/10 02:20:09;;;;;;;10.68;5.05;;;;;;;-0.23;100.00;96046.91;2079990;28;20200;-56
2022/01/10 02:21:10;;;;;;;11.20;4.93;;;;;;;-0.24;100.00;96048.63;2081775;28;20197;-57
2022/01/10 02:22:12;;;;;;;8.68;4.32;;;;;;;-0.09;100.00;96046.41;2080487;28;20206;-56
2022/01/10 02:23:15;;;;;;;17.50;4.43;;;;;;;-0.15;100.00;96050.03;2080236;28;20201;-57
2022/01/10 02:24:17;;;;;;;9.50;4.32;;;;;;;-0.19;100.00;96045.06;2079104;28;20213;-57
2022/01/10 02:25:18;;;;;;;9.35;3.97;;;;;;;-0.09;100.00;96051.56;2080533;28;20202;-58
2022/01/10 02:26:19;;;;;;;14.85;4.45;;;;;;;-0.32;100.00;96026.63;2080312;28;20205;-56
2022/01/10 02:27:23;;;;;;;12.25;4.65;;;;;;;-0.25;100.00;96052.09;2080013;28;20719;-56
2022/01/10 02:28:25;;;;;;;11.93;5.82;;;;;;;-0.27;100.00;96043.59;2080069;28;20193;-57
2022/01/10 02:29:26;;;;;;;6.35;4.47;;;;;;;-0.21;100.00;96057.97;2079796;28;20547;-57
2022/01/10 02:30:28;;;;;;;14.13;6.57;;;;;;;-0.24;100.00;96066.63;2079837;28;20400;-57
2022/01/10 02:31:29;;;;;;;22.25;8.25;;;;;;;-0.19;100.00;96057.94;2080572;28;20213;-56
2022/01/10 02:32:34;;;;;;;15.45;5.63;;;;;;;-0.11;100.00;96066.22;2080657;28;20201;-56
2022/01/10 02:33:36;;;;;;;15.30;5.63;;;;;;;-0.18;100.00;96067.31;2079737;28;20554;-59
2022/01/10 02:34:38;;;;;;;12.57;5.75;;;;;;;-0.25;100.00;96067.53;2080485;28;20218;-59
2022/01/10 02:37:01;;;;;;;11.88;5.10;;;;;;;-0.19;100.00;96070.81;2081710;28;20691;-58
2022/01/10 02:38:08;;;;;;;15.40;5.95;;;;;;;-0.24;100.00;96076.94;2082438;28;20730;-58
2022/01/10 02:39:11;;;;;;;10.23;5.45;;;;;;;-0.22;100.00;96069.16;2081843;28;20239;-59
2022/01/10 02:40:14;;;;;;;12.50;5.03;;;;;;;-0.24;100.00;96079.50;2082213;28;20196;-58
2022/01/10 02:41:28;;;;;;;9.27;5.32;;;;;;;-0.20;100.00;96072.53;2082044;28;20571;-56
2022/01/10 02:42:29;;;;;;;11.63;5.10;;;;;;;-0.21;100.00;96078.56;2081319;28;20201;-59
2022/01/10 02:43:31;;;;;;;19.17;5.43;;;;;;;-0.17;100.00;96080.16;2079861;28;20205;-56
2022/01/10 02:44:32;;;;;;;18.80;5.05;;;;;;;-0.22;100.00;96087.19;2080641;28;20224;-56
2022/01/10 02:45:34;;;;;;;8.50;3.88;;;;;;;-0.34;100.00;96080.72;2080176;28;20212;-57
2022/01/10 02:46:38;;;;;;;12.20;4.38;;;;;;;-0.30;100.00;96084.88;2080400;28;20607;-56
2022/01/10 02:47:40;;;;;;;10.80;2.42;;;;;;;-0.08;100.00;96084.13;2080493;28;20204;-57
2022/01/10 02:48:41;;;;;;;11.20;2.95;;;;;;;-0.04;100.00;96081.41;2079856;28;20201;-56
2022/01/10 02:49:43;;;;;;;11.75;3.40;;;;;;;-0.14;100.00;96082.59;2080400;28;20209;-57
2022/01/10 02:50:44;;;;;;;13.00;3.10;;;;;;;-0.14;100.00;96089.50;2080415;28;20197;-57
2022/01/10 02:51:46;;;;;;;8.52;3.60;;;;;;;-0.15;100.00;96088.66;2071584;28;20350;-57
2022/01/10 02:52:48;;;;;;;7.38;3.10;;;;;;;-0.21;100.00;96084.56;2071647;28;20197;-56
2022/01/10 02:53:49;;;;;;;11.02;4.10;;;;;;;-0.27;100.00;96068.50;2079275;28;20224;-56
2022/01/10 02:54:51;;;;;;;19.65;9.10;;;;;;;-0.16;100.00;96086.97;2079402;28;20213;-57
2022/01/10 02:55:52;;;;;;;30.10;11.05;;;;;;;-0.20;100.00;96087.97;2079136;28;20189;-57
2022/01/10 02:56:56;;;;;;;13.55;6.57;;;;;;;-0.29;100.00;96091.69;2080247;28;20204;-57
2022/01/10 02:57:58;;;;;;;14.35;6.93;;;;;;;-0.30;100.00;96090.00;2080402;28;20193;-56
2022/01/10 02:58:59;;;;;;;23.92;9.38;;;;;;;-0.24;100.00;96100.09;2080036;28;20221;-56
2022/01/10 03:00:20;;;;;;;31.55;14.40;;;;;;;-0.89;100.00;95984.84;2080208;28;20205;-57
2022/01/10 03:01:25;;;;;;;85.82;30.88;;;;;;;-0.24;100.00;96099.25;2080010;28;20204;-56
2022/01/10 03:02:31;;;;;;;43.00;16.02;;;;;;;-0.28;100.00;96101.09;2080274;28;20197;-56
2022/01/10 03:03:33;;;;;;;59.95;20.58;;;;;;;-0.27;100.00;96099.38;2079374;28;20197;-56
2022/01/10 03:04:34;;;;;;;44.05;16.67;;;;;;;-0.41;100.00;96099.84;2080341;28;20597;-57
2022/01/10 03:05:36;;;;;;;31.00;13.05;;;;;;;-0.33;100.00;96099.56;2079526;28;20204;-56
2022/01/10 03:06:39;;;;;;;29.65;11.82;;;;;;;-0.54;100.00;96073.66;2081076;28;20204;-56
2022/01/10 03:07:40;;;;;;;31.98;11.25;;;;;;;-0.29;100.00;96109.72;2078877;28;20209;-57
2022/01/10 03:08:42;;;;;;;25.17;10.98;;;;;;;-0.26;100.00;96101.03;2079776;28;20208;-56
2022/01/10 03:09:43;;;;;;;26.77;12.15;;;;;;;-0.27;100.00;96115.66;2080144;28;20208;-56
2022/01/10 03:10:45;;;;;;;24.52;9.20;;;;;;;-0.15;100.00;96113.56;2080277;28;20533;-57
2022/01/10 03:11:47;;;;;;;20.73;6.63;;;;;;;-0.21;100.00;96115.44;2080660;28;20208;-57
2022/01/10 03:12:49;;;;;;;15.30;6.70;;;;;;;-0.24;100.00;96112.13;2080247;28;20606;-59
2022/01/10 03:13:50;;;;;;;15.27;5.88;;;;;;;-0.24;100.00;96115.53;2079889;28;20228;-56
2022/01/10 03:14:52;;;;;;;15.25;5.75;;;;;;;-0.06;100.00;96118.38;2080221;28;20209;-57
2022/01/10 03:15:53;;;;;;;18.30;5.30;;;;;;;-0.14;100.00;96126.34;2078454;28;20542;-57
2022/01/10 03:16:55;;;;;;;14.60;5.43;;;;;;;-0.27;100.00;96125.13;2080185;28;20275;-56
2022/01/10 03:17:56;;;;;;;10.52;5.15;;;;;;;-0.30;100.00;96128.59;2080677;28;20201;-57
2022/01/10 03:18:58;;;;;;;9.85;4.65;;;;;;;-0.47;100.00;96097.44;2080689;28;20216;-56
2022/01/10 03:20:00;;;;;;;10.15;4.70;;;;;;;-0.30;100.00;96128.59;2081297;28;20200;-57
2022/01/10 03:21:02;;;;;;;14.85;4.78;;;;;;;-0.35;100.00;96133.09;2081374;28;20201;-56
2022/01/10 03:22:05;;;;;;;10.07;4.90;;;;;;;-0.33;100.00;96130.44;2080733;28;20676;-57
2022/01/10 03:23:07;;;;;;;15.60;5.72;;;;;;;-0.42;100.00;96121.31;2080534;28;20197;-57
2022/01/10 03:24:08;;;;;;;14.73;5.82;;;;;;;-0.38;100.00;96138.31;2081235;28;20726;-56
2022/01/10 03:25:10;;;;;;;9.00;5.18;;;;;;;-0.47;100.00;96134.34;2081462;28;20202;-57
2022/01/10 03:26:11;;;;;;;8.15;5.07;;;;;;;-0.40;100.00;96143.50;2081091;28;20204;-56
2022/01/10 03:27:13;;;;;;;19.15;5.13;;;;;;;-0.46;100.00;96122.31;2079736;28;20204;-56
2022/01/10 03:28:15;;;;;;;12.60;5.30;;;;;;;-0.37;100.00;96139.16;2081892;28;20196;-56
2022/01/10 03:29:17;;;;;;;12.95;5.30;;;;;;;-0.35;100.00;96145.09;2080784;28;20772;-56
2022/01/10 03:30:18;;;;;;;15.48;5.53;;;;;;;-0.33;100.00;96144.16;2081802;28;20220;-56
2022/01/10 03:31:20;;;;;;;11.82;5.13;;;;;;;-0.43;100.00;96141.06;2081969;28;20197;-57
2022/01/10 03:32:21;;;;;;;12.45;5.45;;;;;;;-0.24;100.00;96151.56;2081983;28;20232;-56
2022/01/10 03:33:23;;;;;;;12.32;6.07;;;;;;;-0.36;100.00;96154.56;2081483;28;20197;-56
2022/01/10 03:34:24;;;;;;;8.95;4.72;;;;;;;-0.20;100.00;96152.31;2081293;28;20216;-57
2022/01/10 03:35:26;;;;;;;10.88;5.63;;;;;;;-0.43;100.00;96110.19;2081481;28;20213;-57
2022/01/10 03:36:27;;;;;;;17.38;4.88;;;;;;;-0.17;100.00;96157.38;2081361;28;20193;-56
2022/01/10 03:37:29;;;;;;;12.38;5.30;;;;;;;-0.32;100.00;96165.59;2081606;28;20223;-56
2022/01/10 03:38:30;;;;;;;15.25;4.90;;;;;;;-0.20;100.00;96162.59;2081572;28;20557;-56
2022/01/10 03:39:33;;;;;;;10.45;5.63;;;;;;;-0.23;100.00;96163.56;2081947;28;20200;-58
2022/01/10 03:40:34;;;;;;;15.30;4.85;;;;;;;-0.26;100.00;96163.66;2080745;28;20217;-56
2022/01/10 03:41:36;;;;;;;11.15;4.85;;;;;;;-0.34;100.00;96160.50;2081883;28;20656;-57
2022/01/10 03:42:38;;;;;;;9.60;4.80;;;;;;;-0.45;100.00;96165.13;2081717;28;20201;-56
2022/01/10 03:43:39;;;;;;;10.65;5.90;;;;;;;-0.42;100.00;96162.47;2080599;28;20216;-56
2022/01/10 03:44:41;;;;;;;22.70;5.03;;;;;;;-0.64;100.00;96121.16;2081567;28;20197;-56
2022/01/10 03:45:43;;;;;;;9.02;5.40;;;;;;;-0.37;100.00;96170.91;2081622;28;20221;-57
2022/01/10 03:46:45;;;;;;;17.33;5.43;;;;;;;-0.34;100.00;96168.22;2081709;28;20598;-56
2022/01/10 03:47:46;;;;;;;9.90;4.70;;;;;;;-0.50;100.00;96167.88;2081413;28;20201;-57
2022/01/10 03:48:47;;;;;;;9.60;5.07;;;;;;;-0.34;100.00;96169.94;2081217;28;20453;-57
2022/01/10 03:49:49;;;;;;;10.75;5.10;;;;;;;-0.44;100.00;96138.53;2081552;28;20197;-57
2022/01/10 03:50:51;;;;;;;12.05;5.82;;;;;;;-0.27;100.00;96174.00;2081748;28;20201;-57
2022/01/10 03:51:53;;;;;;;12.30;5.28;;;;;;;-0.33;100.00;96166.47;2081610;28;20186;-57
2022/01/10 03:52:54;;;;;;;13.35;5.15;;;;;;;-0.37;100.00;96173.47;2080714;28;20197;-56
2022/01/10 03:53:56;;;;;;;13.55;5.65;;;;;;;-0.35;100.00;96170.81;2081118;28;20232;-56
2022/01/10 03:54:57;;;;;;;19.88;4.55;;;;;;;-0.29;100.00;96179.22;2081575;28;20224;-56
2022/01/10 03:55:58;;;;;;;9.80;4.68;;;;;;;-0.20;100.00;96178.06;2080748;28;20215;-57
2022/01/10 03:57:00;;;;;;;12.57;4.78;;;;;;;-0.18;100.00;96180.59;2081383;28;20193;-57
2022/01/10 03:58:02;;;;;;;9.07;4.70;;;;;;;-0.33;100.00;96166.47;2081579;28;20208;-56
2022/01/10 03:59:04;;;;;;;16.45;5.05;;;;;;;-0.23;100.00;96184.16;2081287;28;20228;-57
2022/01/10 04:00:08;;;;;;;9.05;5.03;;;;;;;-0.27;100.00;96181.72;2081414;28;20205;-57
2022/01/10 04:01:09;;;;;;;10.18;4.07;;;;;;;-0.52;100.00;96149.06;2072595;28;20218;-57
2022/01/10 04:02:11;;;;;;;12.10;5.00;;;;;;;-0.31;100.00;96185.31;2073034;28;20202;-56
2022/01/10 04:03:13;;;;;;;8.20;4.63;;;;;;;-0.34;100.00;96183.66;2081430;28;20466;-57
2022/01/10 04:04:14;;;;;;;11.38;4.10;;;;;;;-0.25;100.00;96175.63;2080945;28;20229;-57
2022/01/10 04:05:16;;;;;;;7.10;4.32;;;;;;;-0.23;100.00;96189.28;2081788;28;20209;-57
2022/01/10 04:06:17;;;;;;;8.50;4.20;;;;;;;-0.15;100.00;96183.06;2080925;28;20233;-59
2022/01/10 04:07:19;;;;;;;23.25;4.10;;;;;;;-0.19;100.00;96189.22;2081514;28;20197;-59
2022/01/10 04:08:20;;;;;;;11.85;4.18;;;;;;;-0.24;100.00;96187.59;2081482;28;20204;-56
2022/01/10 04:09:22;;;;;;;7.22;3.55;;;;;;;-0.23;100.00;96188.47;2080689;28;20229;-56
2022/01/10 04:10:23;;;;;;;11.60;4.80;;;;;;;-0.24;100.00;96197.06;2079031;28;20201;-56
2022/01/10 04:11:25;;;;;;;9.00;3.80;;;;;;;-0.25;100.00;96183.34;2081699;28;20561;-56
2022/01/10 04:12:26;;;;;;;8.20;3.70;;;;;;;-0.49;100.00;96137.81;2081340;28;20208;-56
2022/01/10 04:13:28;;;;;;;11.20;4.43;;;;;;;-0.15;100.00;96201.09;2080723;28;20203;-56
2022/01/10 04:14:29;;;;;;;10.27;4.45;;;;;;;-0.34;100.00;96173.34;2079073;28;20541;-56
2022/01/10 04:15:31;;;;;;;14.60;4.50;;;;;;;-0.22;100.00;96200.44;2081112;28;20212;-56
2022/01/10 04:16:32;;;;;;;7.10;4.00;;;;;;;-0.21;100.00;96208.09;2081373;28;20201;-56
2022/01/10 04:17:35;;;;;;;7.00;3.85;;;;;;;-0.46;100.00;96161.72;2081082;28;20292;-56
2022/01/10 04:18:37;;;;;;;13.52;4.72;;;;;;;-0.18;100.00;96203.75;2080499;28;20208;-56
2022/01/10 04:19:39;;;;;;;8.20;4.80;;;;;;;-0.19;100.00;96204.66;2081426;28;20204;-56
2022/01/10 04:20:45;;;;;;;9.38;4.00;;;;;;;-0.27;100.00;96192.88;2081629;28;20197;-56
2022/01/10 04:21:47;;;;;;;10.60;4.63;;;;;;;-0.18;100.00;96206.31;2082681;28;20201;-57
2022/01/10 04:22:48;;;;;;;15.80;5.65;;;;;;;-0.14;100.00;96203.59;2081589;28;20554;-58
2022/01/10 04:23:50;;;;;;;12.18;4.75;;;;;;;-0.14;100.00;96215.63;2080708;28;20224;-57
2022/01/10 04:24:51;;;;;;;10.95;5.10;;;;;;;-0.15;100.00;96195.94;2081293;28;20555;-58
2022/01/10 04:25:53;;;;;;;8.18;4.72;;;;;;;-0.15;100.00;96213.97;2081161;28;20189;-57
2022/01/10 04:26:54;;;;;;;9.52;4.55;;;;;;;-0.16;100.00;96207.09;2072422;28;20573;-57
2022/01/10 04:27:55;;;;;;;9.43;5.18;;;;;;;-0.19;100.00;96209.81;2072533;28;20197;-58
2022/01/10 04:28:57;;;;;;;12.10;5.55;;;;;;;-0.19;100.00;96210.63;2071733;28;20467;-58
2022/01/10 04:29:59;;;;;;;8.90;4.10;;;;;;;-0.35;100.00;96193.97;2071582;28;20692;-57
2022/01/10 04:31:03;;;;;;;8.00;4.32;;;;;;;-0.25;100.00;96213.41;2081548;28;20197;-57
2022/01/10 04:32:05;;;;;;;9.18;4.30;;;;;;;-0.28;100.00;96211.75;2079556;28;20239;-58
2022/01/10 04:33:07;;;;;;;9.60;3.95;;;;;;;-0.28;100.00;96222.06;2081473;28;20632;-58
2022/01/10 04:34:09;;;;;;;9.02;4.32;;;;;;;-0.26;100.00;96216.84;2079901;28;20224;-57
2022/01/10 04:35:12;;;;;;;12.35;4.65;;;;;;;-0.30;100.00;96221.25;2080226;28;20694;-57
2022/01/10 04:36:13;;;;;;;11.82;4.68;;;;;;;-0.22;100.00;96214.16;2081203;28;20201;-57
2022/01/10 04:37:14;;;;;;;11.95;5.65;;;;;;;-0.21;100.00;96220.13;2081334;28;20201;-58
2022/01/10 04:38:16;;;;;;;11.80;5.03;;;;;;;-0.16;100.00;96209.69;2081311;28;20650;-57
2022/01/10 04:39:21;;;;;;;14.38;5.78;;;;;;;-0.21;100.00;96215.00;2078513;28;20228;-58
2022/01/10 04:40:25;;;;;;;18.15;5.53;;;;;;;-0.18;100.00;96212.31;2081236;28;20201;-57
2022/01/10 04:41:26;;;;;;;15.48;5.28;;;;;;;-0.19;100.00;96228.66;2081012;28;20535;-58
2022/01/10 04:42:28;;;;;;;16.15;6.03;;;;;;;-0.26;100.00;96220.28;2081278;28;20274;-57
2022/01/10 04:43:30;;;;;;;10.40;5.30;;;;;;;-0.33;100.00;96223.94;2081059;28;20201;-58
2022/01/10 04:44:35;;;;;;;8.30;5.10;;;;;;;-0.50;100.00;96182.47;2081084;28;20662;-57
2022/01/10 04:45:36;;;;;;;13.43;5.40;;;;;;;-0.26;100.00;96230.56;2081274;28;20260;-58
2022/01/10 04:46:38;;;;;;;7.00;5.18;;;;;;;-0.26;100.00;96233.13;2080969;28;20280;-58
2022/01/10 04:47:39;;;;;;;20.08;5.00;;;;;;;-0.14;100.00;96228.50;2080322;28;20644;-57
2022/01/10 04:48:41;;;;;;;13.60;5.40;;;;;;;-0.21;100.00;96212.41;2080751;28;20292;-58
2022/01/10 04:51:16;;;;;;;12.38;5.00;;;;;;;-0.25;100.00;96239.97;2050420;28;20204;-57
2022/01/10 04:52:18;;;;;;;15.15;5.30;;;;;;;-0.23;100.00;96245.91;2081184;28;20193;-58
2022/01/10 04:53:19;;;;;;;19.77;7.57;;;;;;;-0.29;100.00;96243.53;2080676;28;20201;-57
2022/01/10 04:54:21;;;;;;;12.38;5.40;;;;;;;-0.30;100.00;96241.84;2079425;28;20217;-58
2022/01/10 04:55:23;;;;;;;10.02;5.47;;;;;;;-0.31;100.00;96249.63;2081293;28;20414;-58
2022/01/10 04:56:25;;;;;;;16.55;6.28;;;;;;;-0.30;100.00;96252.13;2080991;28;20212;-58
2022/01/10 04:57:27;;;;;;;12.13;6.28;;;;;;;-0.24;100.00;96249.38;2080422;28;20200;-57
2022/01/10 04:58:28;;;;;;;17.38;6.70;;;;;;;-0.28;100.00;96245.22;2079973;28;20204;-57